Terminal Aerodrome Forecast
Issued by NWS Tuscon, AZ

Home | Current Version | Previous Version | Text Only | Print | Product List | Glossary On
Versions: 1 2 3 4 5 6 7 8 9 10 11 12
000
FTUS45 KTWC 191140
TAFTUS
TAF
KTUS 191140Z 1912/2012 14008KT P6SM FEW250
     FM191500 12010G18KT P6SM SKC
     FM192200 04008KT P6SM SKC
     FM200700 14008KT P6SM SCT250=

USA.gov is the U.S. government's official web portal to all federal, state and local government web resources and services.